createdAt,value
2024-03-06T00:01:20.026Z,48.17
2024-03-06T00:03:48.483Z,48.04
2024-03-06T00:06:18.208Z,47.97
2024-03-06T00:08:46.550Z,47.96
2024-03-06T00:11:15.249Z,48.10
2024-03-06T00:13:43.842Z,48.03
2024-03-06T00:16:12.239Z,48.21
2024-03-06T00:18:41.310Z,47.97
2024-03-06T00:21:10.827Z,48.06
2024-03-06T00:23:40.558Z,48.31
2024-03-06T00:26:09.054Z,48.23
2024-03-06T00:28:37.499Z,48.14
2024-03-06T00:31:07.951Z,48.43
2024-03-06T00:33:36.320Z,48.33
2024-03-06T00:36:04.968Z,48.38
2024-03-06T00:38:33.309Z,48.33
2024-03-06T00:41:03.142Z,48.57
2024-03-06T00:43:32.442Z,48.54
2024-03-06T00:46:01.706Z,48.47
2024-03-06T00:48:30.043Z,48.57
2024-03-06T00:50:58.460Z,48.97
2024-03-06T00:53:26.837Z,49.00
2024-03-06T00:55:55.247Z,48.72
2024-03-06T00:58:24.974Z,48.99
2024-03-06T01:00:53.344Z,48.94
2024-03-06T01:03:21.793Z,48.89
2024-03-06T01:05:50.175Z,48.78
2024-03-06T01:08:19.209Z,49.19
2024-03-06T01:10:47.001Z,49.10
2024-03-06T01:13:15.386Z,49.06
2024-03-06T01:15:45.111Z,49.07
2024-03-06T01:18:13.738Z,49.33
2024-03-06T01:20:42.329Z,49.43
2024-03-06T01:23:10.877Z,49.42
2024-03-06T01:25:39.326Z,49.41
2024-03-06T01:28:08.338Z,49.79
2024-03-06T01:30:36.707Z,49.74
2024-03-06T01:33:07.548Z,49.87
2024-03-06T01:35:36.080Z,50.06
2024-03-06T01:38:04.490Z,49.85
2024-03-06T01:40:33.243Z,50.34
2024-03-06T01:43:02.359Z,50.29
2024-03-06T01:45:32.286Z,50.35
2024-03-06T01:48:00.714Z,50.35
2024-03-06T01:50:30.597Z,50.54
2024-03-06T01:52:59.263Z,50.46
2024-03-06T01:55:27.802Z,50.56
2024-03-06T01:57:56.506Z,50.45
2024-03-06T02:00:25.734Z,50.71
2024-03-06T02:02:54.557Z,50.57
2024-03-06T02:05:23.158Z,50.64
2024-03-06T02:07:55.840Z,50.76
2024-03-06T02:10:24.281Z,50.88
2024-03-06T02:12:54.032Z,50.57
2024-03-06T02:15:22.589Z,50.51
2024-03-06T02:17:52.141Z,50.94
2024-03-06T02:20:26.235Z,50.81
2024-03-06T02:22:54.739Z,50.77
2024-03-06T02:25:23.175Z,50.86
2024-03-06T02:27:51.522Z,50.55
2024-03-06T02:30:22.799Z,50.74
2024-03-06T02:32:51.167Z,50.71
2024-03-06T02:35:19.988Z,50.25
2024-03-06T02:37:49.790Z,50.55
2024-03-06T02:40:18.587Z,50.26
2024-03-06T02:42:47.076Z,50.09
2024-03-06T02:45:15.492Z,49.95
2024-03-06T02:47:44.229Z,50.01
2024-03-06T02:50:12.945Z,49.56
2024-03-06T02:52:42.134Z,49.62
2024-03-06T02:55:11.990Z,49.76
2024-03-06T02:57:40.389Z,49.53
2024-03-06T03:00:14.418Z,49.51
2024-03-06T03:02:43.120Z,49.32
2024-03-06T03:05:11.773Z,49.45
2024-03-06T03:07:40.390Z,49.20
2024-03-06T03:10:12.131Z,49.29
2024-03-06T03:12:41.349Z,49.33
2024-03-06T03:15:10.944Z,48.84
2024-03-06T03:17:39.336Z,49.05
2024-03-06T03:20:12.402Z,48.72
2024-03-06T03:22:42.436Z,48.91
2024-03-06T03:25:13.715Z,48.81
2024-03-06T03:27:42.779Z,48.72
2024-03-06T03:30:12.865Z,49.01
2024-03-06T03:32:41.717Z,49.08
2024-03-06T03:35:10.887Z,49.06
2024-03-06T03:37:39.644Z,48.99
2024-03-06T03:40:12.678Z,49.02
2024-03-06T03:42:41.427Z,49.22
2024-03-06T03:45:10.878Z,49.29
2024-03-06T03:47:39.885Z,49.03
2024-03-06T03:50:11.496Z,49.08
2024-03-06T03:52:43.518Z,49.12
2024-03-06T03:55:13.622Z,49.27
2024-03-06T03:57:42.009Z,49.20
2024-03-06T04:00:15.076Z,49.24
2024-03-06T04:02:43.700Z,49.53
2024-03-06T04:05:12.578Z,49.38
2024-03-06T04:07:41.106Z,49.40
2024-03-06T04:10:13.097Z,49.28
2024-03-06T04:12:43.009Z,49.27
2024-03-06T04:15:12.274Z,49.56
2024-03-06T04:17:42.298Z,49.53
2024-03-06T04:20:14.273Z,49.31
2024-03-06T04:22:42.766Z,49.61
2024-03-06T04:25:12.008Z,49.76
2024-03-06T04:27:40.486Z,49.35
2024-03-06T04:30:11.890Z,49.83
2024-03-06T04:32:40.752Z,49.42
2024-03-06T04:35:11.477Z,49.76
2024-03-06T04:37:40.466Z,49.71
2024-03-06T04:40:11.399Z,49.52
2024-03-06T04:42:40.065Z,49.90
2024-03-06T04:45:14.567Z,49.54
2024-03-06T04:47:43.079Z,49.74
2024-03-06T04:50:13.359Z,49.91
2024-03-06T04:52:42.294Z,49.84
2024-03-06T04:55:12.527Z,49.79
2024-03-06T04:57:42.958Z,49.52
2024-03-06T05:00:15.822Z,49.95
2024-03-06T05:58:10.258Z,49.51
2024-03-06T06:00:40.814Z,49.36
2024-03-06T06:03:12.952Z,48.93
2024-03-06T06:05:43.097Z,48.81
2024-03-06T06:08:11.605Z,48.93
2024-03-06T06:10:40.103Z,48.77
2024-03-06T06:13:08.591Z,48.92
2024-03-06T06:15:36.967Z,48.45
2024-03-06T06:18:06.268Z,48.74
2024-03-06T06:20:34.865Z,48.77
2024-03-06T06:23:05.058Z,48.26
2024-03-06T06:25:33.422Z,48.61
2024-03-06T06:28:01.904Z,48.19
2024-03-06T06:30:30.384Z,48.09
2024-03-06T06:32:59.070Z,47.97
2024-03-06T06:35:28.656Z,48.02
2024-03-06T06:37:57.098Z,48.06
2024-03-06T06:40:26.833Z,47.58
2024-03-06T06:42:55.217Z,47.72
2024-03-06T06:45:24.318Z,47.71
2024-03-06T06:47:54.491Z,47.40
2024-03-06T06:50:27.134Z,47.43
2024-03-06T06:52:56.042Z,47.14
2024-03-06T06:55:25.797Z,46.90
2024-03-06T06:57:56.751Z,46.88
2024-03-06T07:00:26.421Z,47.09
2024-03-06T07:02:54.849Z,46.54
2024-03-06T07:05:23.457Z,46.69
2024-03-06T07:07:54.885Z,46.47
2024-03-06T07:10:24.731Z,46.67
2024-03-06T07:12:53.228Z,46.52
2024-03-06T07:15:23.123Z,46.02
2024-03-06T07:17:51.635Z,46.17
2024-03-06T07:20:20.337Z,46.09
2024-03-06T07:22:48.786Z,45.73
2024-03-06T07:25:17.539Z,45.67
2024-03-06T07:27:45.904Z,45.34
2024-03-06T07:30:15.618Z,45.19
2024-03-06T07:32:45.372Z,45.03
2024-03-06T07:35:14.600Z,44.86
2024-03-06T07:37:45.976Z,44.64
2024-03-06T07:40:14.843Z,44.63
2024-03-06T07:42:43.240Z,44.65
2024-03-06T07:45:12.602Z,44.27
2024-03-06T07:47:42.629Z,42.19
2024-03-06T07:50:13.889Z,42.91
2024-03-06T07:52:42.360Z,42.91
2024-03-06T07:55:10.855Z,42.84
2024-03-06T07:57:39.345Z,42.96
2024-03-06T08:00:15.825Z,42.55
2024-03-06T08:02:45.171Z,42.27
2024-03-06T08:05:15.289Z,42.43
2024-03-06T08:07:44.129Z,42.07
2024-03-06T08:10:14.432Z,42.04
2024-03-06T08:12:43.840Z,41.99
2024-03-06T08:15:14.217Z,41.91
2024-03-06T08:17:45.444Z,41.65
2024-03-06T08:20:15.838Z,41.58
2024-03-06T08:22:45.327Z,41.53
2024-03-06T08:25:15.128Z,41.41
2024-03-06T08:27:44.521Z,41.02
2024-03-06T08:30:14.185Z,41.00
2024-03-06T08:32:45.205Z,40.73
2024-03-06T08:35:21.626Z,40.55
2024-03-06T08:37:50.746Z,40.52
2024-03-06T08:40:20.521Z,40.39
2024-03-06T08:42:50.177Z,40.44
2024-03-06T08:45:19.625Z,40.17
2024-03-06T08:47:49.844Z,39.83
2024-03-06T08:50:19.813Z,39.34
2024-03-06T08:52:49.052Z,39.09
2024-03-06T08:55:17.709Z,38.55
2024-03-06T08:57:46.205Z,38.54
2024-03-06T09:00:16.537Z,38.53
2024-03-06T09:02:45.189Z,38.63
2024-03-06T09:05:14.999Z,38.77
2024-03-06T09:07:45.023Z,39.06
2024-03-06T09:10:14.174Z,38.64
2024-03-06T09:12:43.479Z,38.49
2024-03-06T09:15:13.258Z,38.72
2024-03-06T09:17:43.183Z,38.80
2024-03-06T09:20:13.906Z,38.94
2024-03-06T09:22:45.108Z,38.91
2024-03-06T09:25:16.453Z,38.76
2024-03-06T09:27:46.504Z,38.32
2024-03-06T09:30:17.018Z,37.86
2024-03-06T09:32:46.018Z,37.95
2024-03-06T09:35:18.829Z,37.97
2024-03-06T09:37:49.497Z,37.97
2024-03-06T09:40:25.760Z,37.55
2024-03-06T09:42:54.553Z,36.76
2024-03-06T09:45:23.407Z,37.23
2024-03-06T09:47:54.269Z,36.87
2024-03-06T09:50:26.954Z,36.20
2024-03-06T09:52:58.577Z,36.37
2024-03-06T09:55:28.803Z,36.43
2024-03-06T09:57:57.481Z,36.32
2024-03-06T10:00:27.682Z,36.51
2024-03-06T10:03:01.831Z,36.10
2024-03-06T10:05:31.869Z,36.29
2024-03-06T10:08:05.353Z,36.21
2024-03-06T10:10:34.080Z,36.47
2024-03-06T10:13:02.642Z,36.50
2024-03-06T10:15:31.231Z,36.69
2024-03-06T10:18:19.329Z,36.46
2024-03-06T10:20:48.230Z,36.41
2024-03-06T10:23:19.491Z,36.36
2024-03-06T10:25:52.194Z,36.52
2024-03-06T10:28:23.420Z,36.46
2024-03-06T10:30:53.301Z,36.27
2024-03-06T10:33:22.357Z,35.98
2024-03-06T10:35:51.272Z,35.57
2024-03-06T10:38:23.991Z,34.85
2024-03-06T10:40:55.307Z,34.30
2024-03-06T10:43:25.420Z,34.46
2024-03-06T10:46:01.611Z,34.52
2024-03-06T10:48:31.464Z,34.77
2024-03-06T10:51:04.286Z,34.76
2024-03-06T10:53:36.334Z,34.97
2024-03-06T10:56:08.078Z,34.40
2024-03-06T10:58:37.206Z,33.50
2024-03-06T11:01:07.522Z,33.11
2024-03-06T11:03:37.196Z,32.74
2024-03-06T11:06:07.126Z,32.88
2024-03-06T11:08:37.816Z,32.86
2024-03-06T11:11:26.910Z,32.64
2024-03-06T11:13:59.506Z,31.90
2024-03-06T11:16:35.284Z,31.78
2024-03-06T11:19:10.889Z,31.31
2024-03-06T11:21:49.815Z,30.83
2024-03-06T11:24:22.196Z,30.54
2024-03-06T11:26:53.048Z,29.66
2024-03-06T11:29:23.754Z,30.02
2024-03-06T11:32:09.422Z,29.71
2024-03-06T11:34:39.467Z,28.26
2024-03-06T11:37:11.172Z,28.71
2024-03-06T11:39:43.008Z,28.25
2024-03-06T11:42:12.897Z,28.67
2024-03-06T11:44:57.663Z,28.86
2024-03-06T11:47:26.386Z,29.26
2024-03-06T11:49:55.988Z,28.34
2024-03-06T11:52:24.923Z,28.31
2024-03-06T11:54:55.819Z,28.49
2024-03-06T11:57:25.055Z,27.83
2024-03-06T11:59:56.453Z,27.22
2024-03-06T12:02:24.998Z,26.12
2024-03-06T12:04:55.005Z,25.26
2024-03-06T12:07:23.968Z,25.82
2024-03-06T12:09:55.973Z,26.10
2024-03-06T12:12:24.548Z,23.04
2024-03-06T12:15:01.973Z,24.47
2024-03-06T12:17:30.624Z,24.41
2024-03-06T12:19:59.199Z,24.20
2024-03-06T12:22:28.588Z,24.30
2024-03-06T12:25:05.622Z,23.81
2024-03-06T12:27:36.946Z,24.59
2024-03-06T12:30:14.216Z,25.02
2024-03-06T12:32:43.171Z,25.08
2024-03-06T12:35:11.953Z,23.45
2024-03-06T12:37:40.921Z,23.62
2024-03-06T12:40:14.664Z,23.80
2024-03-06T12:42:43.300Z,24.35
2024-03-06T12:45:12.990Z,25.23
2024-03-06T12:47:43.813Z,25.39
2024-03-06T12:50:13.137Z,25.63
2024-03-06T12:52:41.646Z,25.98
2024-03-06T12:55:11.540Z,25.69
2024-03-06T12:57:41.287Z,25.92
2024-03-06T13:00:17.163Z,26.13
2024-03-06T13:02:46.383Z,26.18
2024-03-06T13:05:15.615Z,26.75
2024-03-06T13:07:45.597Z,26.67
2024-03-06T13:10:15.576Z,26.71
2024-03-06T13:12:44.003Z,26.92
2024-03-06T13:15:12.781Z,27.38
2024-03-06T13:17:42.251Z,27.74
2024-03-06T13:20:13.123Z,27.63
2024-03-06T13:22:42.507Z,27.92
2024-03-06T13:25:11.193Z,27.95
2024-03-06T13:27:40.960Z,28.09
2024-03-06T13:30:11.450Z,28.34
2024-03-06T13:32:39.933Z,28.17
2024-03-06T13:35:13.364Z,28.49
2024-03-06T13:37:41.997Z,28.50
2024-03-06T13:40:14.645Z,28.57
2024-03-06T13:42:45.297Z,28.79
2024-03-06T13:45:13.927Z,28.75
2024-03-06T13:47:43.805Z,29.08
2024-03-06T13:50:14.349Z,29.31
2024-03-06T13:52:42.984Z,29.47
2024-03-06T13:55:12.105Z,29.70
2024-03-06T13:57:42.955Z,29.51
2024-03-06T14:00:18.684Z,29.50
2024-03-06T14:02:48.691Z,29.54
2024-03-06T14:05:17.688Z,29.78
2024-03-06T14:07:46.131Z,29.82
2024-03-06T14:10:15.097Z,29.74
2024-03-06T14:12:43.489Z,29.80
2024-03-06T14:15:14.456Z,29.89
2024-03-06T14:17:43.629Z,29.79
2024-03-06T14:20:14.016Z,29.92
2024-03-06T14:22:43.130Z,29.87
2024-03-06T14:25:11.895Z,29.90
2024-03-06T14:27:40.617Z,30.09
2024-03-06T14:30:11.654Z,30.11
2024-03-06T14:32:41.621Z,30.01
2024-03-06T14:35:11.461Z,30.06
2024-03-06T14:37:40.723Z,30.11
2024-03-06T14:40:11.267Z,30.32
2024-03-06T14:42:39.790Z,30.24
2024-03-06T14:45:11.072Z,30.21
2024-03-06T14:47:40.938Z,30.22
2024-03-06T14:50:10.437Z,30.29
2024-03-06T14:52:39.249Z,30.41
2024-03-06T14:55:10.153Z,30.56
2024-03-06T14:57:38.747Z,30.42
2024-03-06T15:00:09.851Z,30.52
2024-03-06T15:02:42.006Z,30.58
2024-03-06T15:05:13.322Z,30.61
2024-03-06T15:07:41.904Z,30.68
2024-03-06T15:10:11.832Z,30.68
2024-03-06T15:12:40.253Z,30.71
2024-03-06T15:15:10.326Z,30.95
2024-03-06T15:17:41.716Z,31.01
2024-03-06T15:20:14.122Z,31.09
2024-03-06T15:22:42.497Z,31.06
2024-03-06T15:25:11.608Z,31.24
2024-03-06T15:27:40.546Z,31.29
2024-03-06T15:30:12.248Z,31.48
2024-03-06T15:32:42.494Z,31.44
2024-03-06T15:35:13.083Z,31.38
2024-03-06T15:37:41.559Z,31.59
2024-03-06T15:40:12.255Z,31.57
2024-03-06T15:42:41.515Z,31.42
2024-03-06T15:45:11.348Z,31.56
2024-03-06T15:47:43.354Z,31.32
2024-03-06T15:50:12.554Z,31.48
2024-03-06T15:52:41.687Z,31.61
2024-03-06T15:55:11.583Z,31.77
2024-03-06T15:57:41.313Z,31.90
2024-03-06T16:00:14.850Z,31.89
2024-03-06T16:02:45.351Z,31.77
2024-03-06T16:05:13.921Z,32.00
2024-03-06T16:07:47.821Z,32.07
2024-03-06T16:10:24.219Z,32.14
2024-03-06T16:12:55.707Z,32.10
2024-03-06T16:15:26.437Z,32.23
2024-03-06T16:17:56.273Z,32.41
2024-03-06T16:20:24.824Z,32.52
2024-03-06T16:22:53.224Z,32.23
2024-03-06T16:25:21.667Z,32.35
2024-03-06T16:27:50.034Z,32.52
2024-03-06T16:30:18.577Z,32.59
2024-03-06T16:32:47.056Z,32.68
2024-03-06T16:35:17.078Z,32.83
2024-03-06T16:37:45.438Z,33.01
2024-03-06T16:40:14.026Z,32.95
2024-03-06T16:42:42.439Z,33.21
2024-03-06T16:45:13.365Z,33.48
2024-03-06T16:47:41.846Z,33.54
2024-03-06T16:50:12.528Z,33.77
2024-03-06T16:52:42.643Z,33.75
2024-03-06T16:55:11.486Z,33.89
2024-03-06T16:57:40.184Z,33.95
2024-03-06T17:00:11.153Z,33.96
2024-03-06T17:02:39.647Z,34.04
2024-03-06T17:05:11.755Z,34.17
2024-03-06T17:07:43.235Z,34.28
2024-03-06T17:10:12.409Z,34.30
2024-03-06T17:12:40.867Z,34.35
2024-03-06T17:15:11.692Z,34.63
2024-03-06T17:17:40.129Z,34.63
2024-03-06T17:20:11.133Z,34.67
2024-03-06T17:22:41.058Z,34.77
2024-03-06T17:25:10.405Z,34.77
2024-03-06T17:27:39.155Z,35.13
2024-03-06T17:30:10.452Z,35.15
2024-03-06T17:32:39.007Z,35.05
2024-03-06T17:35:09.673Z,35.01
2024-03-06T17:37:38.867Z,34.88
2024-03-06T17:40:12.278Z,34.83
2024-03-06T17:42:41.487Z,34.60
2024-03-06T17:45:11.744Z,34.62
2024-03-06T17:47:41.768Z,34.60
2024-03-06T17:50:15.033Z,34.62
2024-03-06T17:52:43.450Z,34.40
2024-03-06T17:55:13.538Z,34.27
2024-03-06T17:57:46.988Z,34.45
2024-03-06T18:00:17.101Z,34.50
2024-03-06T18:02:46.261Z,34.47
2024-03-06T18:05:14.848Z,34.50
2024-03-06T18:07:46.352Z,34.38
2024-03-06T18:10:18.111Z,34.41
2024-03-06T18:12:46.510Z,34.42
2024-03-06T18:15:15.635Z,34.25
2024-03-06T18:17:44.336Z,34.22
2024-03-06T18:20:14.247Z,34.33
2024-03-06T18:22:42.922Z,34.26
2024-03-06T18:25:12.044Z,34.33
2024-03-06T18:27:42.172Z,34.30
2024-03-06T18:30:12.963Z,34.48
2024-03-06T18:32:41.386Z,34.60
2024-03-06T18:35:10.900Z,34.37
2024-03-06T18:37:39.334Z,34.39
2024-03-06T18:40:09.026Z,34.56
2024-03-06T18:42:37.573Z,34.31
2024-03-06T18:45:10.303Z,34.24
2024-03-06T18:47:39.358Z,34.28
2024-03-06T18:50:09.354Z,34.23
2024-03-06T18:52:38.249Z,34.27
2024-03-06T18:55:08.417Z,34.16
2024-03-06T18:57:36.822Z,34.23
2024-03-06T19:00:08.351Z,34.42
2024-03-06T19:02:37.088Z,34.35
2024-03-06T19:05:07.106Z,34.38
2024-03-06T19:07:36.040Z,34.33
2024-03-06T19:10:07.063Z,34.40
2024-03-06T19:12:35.639Z,34.35
2024-03-06T19:15:04.145Z,34.55
2024-03-06T19:17:34.108Z,34.48
2024-03-06T19:20:03.608Z,34.57
2024-03-06T19:22:32.435Z,34.52
2024-03-06T19:25:01.287Z,34.55
2024-03-06T19:27:30.302Z,34.60
2024-03-06T19:30:00.124Z,34.66
2024-03-06T19:32:39.222Z,34.43
2024-03-06T19:35:17.182Z,34.63
2024-03-06T19:37:45.759Z,34.81
2024-03-06T19:40:15.021Z,34.86
2024-03-06T19:42:45.163Z,34.91
2024-03-06T19:45:14.364Z,34.88
2024-03-06T19:47:43.694Z,34.96
2024-03-06T19:50:12.821Z,35.03
2024-03-06T19:52:47.739Z,35.19
2024-03-06T19:55:17.037Z,35.23
2024-03-06T19:57:46.173Z,35.30
2024-03-06T20:00:18.596Z,35.30
2024-03-06T20:02:48.312Z,35.53
2024-03-06T20:05:17.429Z,35.71
2024-03-06T20:07:47.602Z,35.92
2024-03-06T20:10:17.288Z,36.07
2024-03-06T20:12:46.374Z,36.00
2024-03-06T20:15:15.838Z,36.02
2024-03-06T20:17:44.894Z,36.13
2024-03-06T20:20:15.248Z,36.12
2024-03-06T20:22:43.987Z,36.33
2024-03-06T20:25:14.418Z,36.28
2024-03-06T20:27:43.498Z,36.36
2024-03-06T20:30:14.098Z,36.45
2024-03-06T20:32:43.170Z,36.60
2024-03-06T20:35:14.375Z,36.51
2024-03-06T20:37:44.153Z,36.51
2024-03-06T20:40:15.285Z,36.62
2024-03-06T20:42:44.061Z,36.69
2024-03-06T20:45:14.152Z,36.96
2024-03-06T20:47:43.960Z,36.78
2024-03-06T20:50:14.250Z,36.87
2024-03-06T20:52:44.239Z,36.79
2024-03-06T20:55:14.856Z,37.02
2024-03-06T20:57:44.213Z,37.20
2024-03-06T21:00:17.616Z,37.29
2024-03-06T21:02:46.175Z,37.19
2024-03-06T21:05:15.116Z,37.55
2024-03-06T21:07:45.690Z,37.45
2024-03-06T21:10:17.835Z,37.40
2024-03-06T21:12:49.626Z,37.51
2024-03-06T21:15:19.150Z,37.51
2024-03-06T21:17:48.204Z,37.48
2024-03-06T21:20:18.178Z,37.64
2024-03-06T21:22:47.484Z,37.95
2024-03-06T21:25:17.708Z,37.94
2024-03-06T21:27:46.566Z,37.98
2024-03-06T21:30:15.838Z,37.80
2024-03-06T21:32:44.808Z,38.08
2024-03-06T21:35:14.000Z,37.96
2024-03-06T21:37:42.561Z,38.11
2024-03-06T21:40:14.641Z,38.23
2024-03-06T21:42:46.637Z,38.47
2024-03-06T21:45:15.835Z,38.16
2024-03-06T21:47:44.392Z,38.38
2024-03-06T21:50:14.225Z,38.09
2024-03-06T21:52:43.486Z,38.29
2024-03-06T21:55:12.542Z,38.29
2024-03-06T21:57:40.887Z,38.20
2024-03-06T22:00:16.156Z,38.60
2024-03-06T22:02:44.606Z,38.51
2024-03-06T22:05:13.165Z,38.50
2024-03-06T22:07:41.634Z,38.56
2024-03-06T22:10:11.071Z,38.53
2024-03-06T22:12:39.674Z,38.69
2024-03-06T22:15:13.440Z,38.78
2024-03-06T22:17:41.780Z,38.81
2024-03-06T22:20:11.511Z,39.07
2024-03-06T22:22:39.906Z,38.66
2024-03-06T22:25:08.945Z,39.35
2024-03-06T22:27:39.730Z,40.58
2024-03-06T22:30:09.598Z,41.25
2024-03-06T22:32:39.449Z,42.39
2024-03-06T22:35:11.458Z,42.30
2024-03-06T22:37:40.251Z,42.91
2024-03-06T22:40:11.273Z,43.16
2024-03-06T22:42:39.631Z,43.38
2024-03-06T22:45:09.565Z,43.50
2024-03-06T22:47:39.283Z,43.61
2024-03-06T22:50:10.837Z,43.49
2024-03-06T22:52:39.321Z,43.42
2024-03-06T22:55:08.588Z,43.44
2024-03-06T22:57:37.130Z,43.50
2024-03-06T23:00:20.417Z,43.43
2024-03-06T23:02:50.721Z,43.36
2024-03-06T23:05:19.984Z,43.40
2024-03-06T23:07:48.455Z,43.04
2024-03-06T23:10:18.892Z,43.35
2024-03-06T23:12:47.915Z,43.34
2024-03-06T23:15:17.801Z,43.25
2024-03-06T23:17:51.749Z,43.02
2024-03-06T23:20:21.782Z,43.21
2024-03-06T23:22:50.539Z,42.98
2024-03-06T23:25:19.590Z,42.85
2024-03-06T23:27:49.339Z,42.84
2024-03-06T23:30:19.392Z,42.76
2024-03-06T23:32:50.540Z,42.58
2024-03-06T23:35:19.722Z,42.53
2024-03-06T23:37:48.420Z,42.37
2024-03-06T23:40:17.472Z,42.31
2024-03-06T23:42:47.890Z,42.60
2024-03-06T23:45:17.494Z,42.62
2024-03-06T23:47:48.600Z,42.67
2024-03-06T23:50:21.850Z,42.76
2024-03-06T23:52:50.829Z,43.27
2024-03-06T23:55:19.447Z,43.09
2024-03-06T23:57:48.037Z,43.33
